Time;durP1;ratioP1;P1;durP2;ratioP2;P2;SDS_P1;SDS_P2;PMS_P1;PMS_P2;Temp;Humidity;BMP_temperature;BMP_pressure;BME280_temperature;BME280_humidity;BME280_pressure;Samples;Min_cycle;Max_cycle;Signal;HPM_P1;HPM_P2
2023/06/06 00:01:32;;;;;;;0.80;0.80;;;16.40;53.20;15.80;96058.00;;;;5012871;28;20280;-58
2023/06/06 00:03:59;;;;;;;1.77;1.67;;;16.40;54.90;15.80;96059.00;;;;5012865;28;20200;-57
2023/06/06 00:06:32;;;;;;;1.63;1.40;;;16.40;55.00;15.80;96060.00;;;;5013017;28;20200;-56
2023/06/06 00:09:00;;;;;;;1.13;1.03;;;;;15.80;96059.00;;;;5013201;28;20721;-57
2023/06/06 00:11:28;;;;;;;0.73;0.73;;;16.40;54.50;15.80;96051.00;;;;5013242;28;20213;-57
2023/06/06 00:13:57;;;;;;;1.30;1.30;;;16.40;54.70;15.80;96059.00;;;;5012654;28;20715;-57
2023/06/06 00:16:27;;;;;;;0.90;0.90;;;16.40;54.60;15.70;96059.00;;;;5013486;28;20296;-56
2023/06/06 00:18:55;;;;;;;0.93;0.93;;;16.30;55.10;15.60;96055.00;;;;5013294;28;20181;-56
2023/06/06 00:21:22;;;;;;;1.00;1.00;;;16.30;55.30;15.60;96054.00;;;;5013276;28;20655;-57
2023/06/06 00:23:49;;;;;;;1.67;1.53;;;16.30;55.10;15.60;96048.00;;;;5013495;28;20641;-57
2023/06/06 00:26:17;;;;;;;0.90;0.90;;;16.30;55.50;15.70;96054.00;;;;5013127;28;20202;-57
2023/06/06 00:28:44;;;;;;;1.87;1.77;;;16.30;55.40;15.60;96058.00;;;;5013156;28;20668;-57
2023/06/06 00:31:13;;;;;;;2.53;1.20;;;;;15.60;96059.00;;;;5013030;28;20625;-57
2023/06/06 00:33:40;;;;;;;1.07;1.07;;;;;15.60;96056.00;;;;5013061;28;20225;-57
2023/06/06 00:36:08;;;;;;;1.27;1.00;;;;;15.50;96054.00;;;;5012967;28;20200;-58
2023/06/06 00:38:35;;;;;;;0.90;0.90;;;16.20;53.30;15.40;96057.00;;;;5012922;28;20202;-56
2023/06/06 00:41:02;;;;;;;0.83;0.83;;;16.20;55.80;15.40;96059.00;;;;5013031;28;20217;-56
2023/06/06 00:43:29;;;;;;;1.23;1.23;;;16.10;55.30;15.40;96057.00;;;;5013337;28;20193;-56
2023/06/06 00:45:56;;;;;;;1.27;1.27;;;16.00;54.90;15.40;96044.00;;;;5012975;28;20189;-57
2023/06/06 00:48:26;;;;;;;1.17;1.17;;;16.00;54.90;15.40;96045.00;;;;5013128;28;20529;-57
2023/06/06 00:50:54;;;;;;;0.90;0.90;;;16.10;54.30;15.30;96053.00;;;;5012877;28;20584;-56
2023/06/06 00:53:21;;;;;;;0.70;0.70;;;16.00;54.70;15.20;96049.00;;;;5013328;28;20216;-60
2023/06/06 00:55:48;;;;;;;0.90;0.90;;;15.90;54.80;15.10;96053.00;;;;5012830;28;20190;-56
2023/06/06 00:58:16;;;;;;;1.20;1.10;;;15.80;55.30;15.10;96052.00;;;;5012682;28;20185;-56
2023/06/06 01:00:44;;;;;;;0.90;0.90;;;15.80;55.50;15.00;96045.00;;;;5012931;28;20205;-56
2023/06/06 01:03:14;;;;;;;1.00;1.00;;;15.70;55.90;14.80;96049.00;;;;5012785;28;20564;-57
2023/06/06 01:05:42;;;;;;;1.27;1.17;;;15.60;56.20;15.00;96048.00;;;;5013361;28;20535;-56
2023/06/06 01:08:12;;;;;;;0.90;0.90;;;15.50;55.70;14.90;96049.00;;;;5013408;28;20301;-57
2023/06/06 01:10:40;;;;;;;1.03;0.97;;;15.60;56.50;14.80;96048.00;;;;5012869;28;20632;-57
2023/06/06 01:13:18;;;;;;;0.90;0.90;;;15.50;56.70;14.80;96051.00;;;;5011772;28;20232;-56
2023/06/06 01:15:54;;;;;;;0.70;0.70;;;15.40;57.10;14.80;96045.00;;;;5012897;28;20182;-56
2023/06/06 01:18:22;;;;;;;1.87;1.73;;;15.50;57.10;14.70;96044.00;;;;5013131;28;20252;-59
2023/06/06 01:20:52;;;;;;;0.83;0.83;;;15.40;57.60;14.60;96055.00;;;;5012578;28;20279;-56
2023/06/06 01:23:21;;;;;;;2.87;0.90;;;15.40;57.30;14.50;96050.00;;;;5026513;22;20229;-56
2023/06/06 01:25:48;;;;;;;0.97;0.97;;;15.30;57.70;14.50;96050.00;;;;5015253;28;20281;-57
2023/06/06 01:28:16;;;;;;;1.03;1.03;;;15.20;58.60;14.50;96052.00;;;;5016211;28;20294;-56
2023/06/06 01:30:45;;;;;;;0.87;0.87;;;15.10;58.90;14.50;96052.00;;;;5016213;28;20189;-57
2023/06/06 01:33:31;;;;;;;0.83;0.83;;;15.10;59.10;14.70;96052.00;;;;5016375;28;20248;-57
2023/06/06 01:36:14;;;;;;;0.77;0.77;;;15.20;58.70;14.70;96048.00;;;;5016283;28;20181;-57
2023/06/06 01:38:48;;;;;;;0.97;0.97;;;15.30;58.20;14.60;96054.00;;;;5016396;28;20186;-56
2023/06/06 01:41:19;;;;;;;1.30;1.30;;;15.20;58.40;14.50;96047.00;;;;5016249;28;20204;-56
2023/06/06 01:43:51;;;;;;;6.07;1.23;;;15.20;58.10;14.30;96049.00;;;;5016025;28;20221;-56
2023/06/06 01:46:21;;;;;;;1.03;1.00;;;15.10;58.30;14.40;96048.00;;;;5015471;28;20283;-56
2023/06/06 01:48:48;;;;;;;1.00;1.00;;;15.00;58.70;14.10;96045.00;;;;5015423;28;20194;-56
2023/06/06 01:51:15;;;;;;;1.00;1.00;;;14.90;58.80;13.90;96047.00;;;;5015986;28;20313;-59
2023/06/06 01:53:44;;;;;;;1.10;1.10;;;14.60;59.60;14.00;96049.00;;;;5015620;28;20221;-56
2023/06/06 01:56:13;;;;;;;0.60;0.60;;;14.60;60.40;14.00;96057.00;;;;5015798;28;20201;-56
2023/06/06 01:58:41;;;;;;;0.97;0.97;;;14.70;60.10;14.10;96040.00;;;;5015986;28;20201;-56
2023/06/06 02:01:08;;;;;;;1.53;1.43;;;14.70;60.00;14.10;96044.00;;;;5015918;28;20189;-56
2023/06/06 02:03:36;;;;;;;1.17;1.17;;;14.70;60.00;14.10;96051.00;;;;5015722;28;20205;-56
2023/06/06 02:06:05;;;;;;;1.10;1.10;;;14.70;59.40;14.10;96049.00;;;;5015694;28;20691;-56
2023/06/06 02:08:32;;;;;;;0.77;0.77;;;14.70;59.50;14.00;96048.00;;;;5014321;28;20561;-56
2023/06/06 02:11:01;;;;;;;1.20;1.10;;;14.70;59.40;14.10;96046.00;;;;5015484;28;20194;-56
2023/06/06 02:13:28;;;;;;;1.10;1.10;;;14.70;59.50;14.10;96054.00;;;;5015514;28;20221;-56
2023/06/06 02:15:55;;;;;;;0.83;0.83;;;14.70;59.80;14.10;96056.00;;;;5015856;28;20653;-56
2023/06/06 02:18:22;;;;;;;2.23;1.20;;;14.70;59.10;14.00;96053.00;;;;5015343;28;20251;-56
2023/06/06 02:20:49;;;;;;;0.87;0.87;;;14.70;59.20;14.00;96055.00;;;;5015336;28;20190;-56
2023/06/06 02:23:19;;;;;;;1.13;1.13;;;14.70;59.30;13.90;96058.00;;;;5015176;28;20217;-56
2023/06/06 02:25:46;;;;;;;1.10;1.10;;;14.60;59.30;13.80;96062.00;;;;5015221;28;20189;-56
2023/06/06 02:28:15;;;;;;;1.33;1.27;;;14.60;59.30;13.90;96054.00;;;;5015473;28;20231;-56
2023/06/06 02:30:43;;;;;;;0.93;0.93;;;14.50;59.40;13.80;96053.00;;;;5015068;28;20196;-56
2023/06/06 02:33:10;;;;;;;1.97;1.87;;;14.50;59.50;13.90;96058.00;;;;5015136;28;20217;-56
2023/06/06 02:35:37;;;;;;;0.77;0.77;;;14.50;59.40;13.70;96058.00;;;;5014963;28;20657;-56
2023/06/06 02:38:05;;;;;;;1.10;1.10;;;14.40;59.40;13.80;96057.00;;;;5014918;28;20190;-56
2023/06/06 02:40:32;;;;;;;1.00;1.00;;;14.40;59.60;13.70;96065.00;;;;5014809;28;20181;-56
2023/06/06 02:42:59;;;;;;;0.70;0.70;;;14.40;58.70;13.40;96059.00;;;;5014606;28;20226;-55
2023/06/06 02:45:28;;;;;;;1.10;1.10;;;14.20;58.70;13.40;96057.00;;;;5012938;28;20208;-55
2023/06/06 02:47:55;;;;;;;2.20;1.77;;;14.10;59.40;13.50;96059.00;;;;5014776;28;20236;-57
2023/06/06 02:50:22;;;;;;;2.30;1.13;;;14.10;60.10;13.40;96062.00;;;;5014870;28;20193;-55
2023/06/06 02:52:51;;;;;;;0.80;0.80;;;14.00;60.20;13.50;96056.00;;;;5014586;28;20222;-57
2023/06/06 02:55:18;;;;;;;0.87;0.87;;;14.10;60.10;13.60;96061.00;;;;5014637;28;20731;-55
2023/06/06 02:57:45;;;;;;;1.10;1.00;;;14.20;60.20;13.50;96056.00;;;;5013675;28;20193;-55
2023/06/06 03:00:14;;;;;;;1.03;1.03;;;14.10;60.20;13.60;96060.00;;;;5015027;28;20192;-55
2023/06/06 03:02:42;;;;;;;1.00;1.00;;;14.20;60.00;13.60;96065.00;;;;5014651;28;20217;-55
2023/06/06 03:05:11;;;;;;;0.73;0.73;;;14.20;59.70;13.50;96060.00;;;;5014709;28;20200;-55
2023/06/06 03:07:40;;;;;;;0.50;0.50;;;14.20;59.50;13.30;96066.00;;;;5014628;28;20209;-56
2023/06/06 03:10:09;;;;;;;1.30;1.20;;;14.10;59.50;13.30;96066.00;;;;5014650;28;20555;-55
2023/06/06 03:12:36;;;;;;;1.07;1.07;;;14.00;59.80;13.20;96058.00;;;;5014217;28;20232;-55
2023/06/06 03:15:04;;;;;;;0.70;0.70;;;14.00;60.10;13.20;96064.00;;;;5014879;28;20200;-55
2023/06/06 03:17:31;;;;;;;0.80;0.80;;;13.90;60.20;13.20;96055.00;;;;5014500;28;20194;-55
2023/06/06 03:20:00;;;;;;;0.60;0.60;;;13.90;60.30;13.20;96064.00;;;;5014511;28;20576;-55
2023/06/06 03:22:27;;;;;;;1.43;1.33;;;13.90;60.30;13.20;96068.00;;;;5014224;28;20209;-56
2023/06/06 03:24:54;;;;;;;1.10;1.00;;;13.90;60.50;13.10;96074.00;;;;5014550;28;20174;-56
2023/06/06 03:27:21;;;;;;;0.60;0.60;;;14.00;60.20;13.10;96075.00;;;;5014350;28;20190;-55
2023/06/06 03:29:48;;;;;;;1.37;0.90;;;13.70;60.70;13.10;96076.00;;;;5014116;28;20268;-55
2023/06/06 03:32:15;;;;;;;0.90;0.90;;;13.70;61.20;13.20;96072.00;;;;5014165;28;20185;-55
2023/06/06 03:34:42;;;;;;;1.53;1.43;;;13.80;60.60;13.00;96077.00;;;;5014276;28;20580;-55
2023/06/06 03:37:10;;;;;;;0.80;0.80;;;13.70;60.60;13.00;96075.00;;;;5013948;28;20217;-55
2023/06/06 03:39:39;;;;;;;0.87;0.87;;;13.80;60.30;13.10;96080.00;;;;5014158;28;20216;-55
2023/06/06 03:42:07;;;;;;;0.90;0.90;;;13.70;59.50;13.10;96085.00;;;;5012483;28;20194;-55
2023/06/06 03:44:34;;;;;;;1.30;1.20;;;13.70;60.40;13.10;96085.00;;;;5012372;28;20200;-55
2023/06/06 03:47:01;;;;;;;1.10;1.10;;;13.70;60.90;13.20;96081.00;;;;5013795;28;20197;-55
2023/06/06 03:49:35;;;;;;;1.47;1.37;;;13.80;61.00;13.20;96079.00;;;;5013111;28;20586;-55
2023/06/06 03:52:03;;;;;;;6.43;1.67;;;13.90;60.60;13.30;96077.00;;;;5012471;28;20308;-55
2023/06/06 03:54:36;;;;;;;0.90;0.90;;;13.90;60.90;13.20;96081.00;;;;5013542;28;20271;-55
2023/06/06 03:57:03;;;;;;;0.93;0.93;;;13.90;60.70;13.00;96080.00;;;;5013902;28;20184;-55
2023/06/06 03:59:30;;;;;;;1.30;1.30;;;13.70;61.10;13.00;96087.00;;;;5013597;28;20197;-55
2023/06/06 04:01:58;;;;;;;0.90;0.90;;;13.70;61.10;12.80;96084.00;;;;5013885;28;20200;-56
2023/06/06 04:04:26;;;;;;;1.30;1.30;;;13.50;61.00;12.90;96082.00;;;;5012291;28;20783;-56
2023/06/06 04:06:53;;;;;;;2.33;1.17;;;13.50;60.80;12.80;96090.00;;;;5013497;28;20185;-55
2023/06/06 04:09:20;;;;;;;2.50;0.90;;;13.50;60.50;12.80;96098.00;;;;5013682;28;20204;-55
2023/06/06 04:11:49;;;;;;;0.93;0.93;;;13.50;60.40;12.90;96088.00;;;;5013418;28;20193;-55
2023/06/06 04:14:16;;;;;;;1.30;1.20;;;13.50;60.70;12.80;96090.00;;;;5013441;28;20229;-55
2023/06/06 04:16:44;;;;;;;6.90;2.03;;;13.50;61.00;12.90;96096.00;;;;5013609;28;20197;-56
2023/06/06 04:19:11;;;;;;;0.80;0.80;;;13.50;61.50;12.90;96094.00;;;;5013115;28;20220;-56
2023/06/06 04:21:38;;;;;;;0.90;0.90;;;13.50;62.80;13.00;96097.00;;;;5013339;28;20213;-56
2023/06/06 04:24:05;;;;;;;1.73;1.63;;;13.60;62.30;13.00;96096.00;;;;5013177;28;20216;-55
2023/06/06 04:26:33;;;;;;;1.07;1.07;;;13.50;62.70;13.00;96089.00;;;;5013423;28;20197;-55
2023/06/06 04:29:02;;;;;;;1.63;1.53;;;13.60;62.90;12.90;96097.00;;;;5013616;28;20198;-55
2023/06/06 04:31:30;;;;;;;0.67;0.67;;;13.60;63.10;13.00;96093.00;;;;5011941;28;20193;-56
2023/06/06 04:33:57;;;;;;;1.53;1.43;;;13.60;63.00;13.00;96094.00;;;;5013167;28;20279;-56
2023/06/06 04:36:24;;;;;;;0.73;0.73;;;13.60;64.20;13.00;96085.00;;;;5013196;28;20268;-56
2023/06/06 04:39:00;;;;;;;1.53;1.43;;;13.70;64.20;13.10;96094.00;;;;5013127;28;20190;-55
2023/06/06 04:41:31;;;;;;;1.00;1.00;;;13.60;64.10;13.10;96092.00;;;;5013366;28;20607;-56
2023/06/06 04:43:59;;;;;;;1.17;1.10;;;13.70;63.30;13.20;96085.00;;;;5013222;28;20217;-57
2023/06/06 04:46:29;;;;;;;1.20;1.20;;;13.70;63.70;13.20;96093.00;;;;5013173;28;20194;-56
2023/06/06 04:48:59;;;;;;;1.30;1.20;;;13.70;63.30;13.10;96088.00;;;;5013056;28;20189;-56
2023/06/06 04:51:30;;;;;;;1.03;1.00;;;13.70;62.60;13.10;96089.00;;;;5013523;28;20194;-56
2023/06/06 04:53:59;;;;;;;1.03;1.03;;;13.60;61.80;13.10;96084.00;;;;5013669;28;20234;-56
2023/06/06 04:56:28;;;;;;;0.87;0.87;;;13.60;61.30;13.20;96090.00;;;;5013018;28;20194;-56
2023/06/06 04:58:56;;;;;;;1.27;1.27;;;13.70;61.70;13.20;96097.00;;;;5012811;28;20193;-56
2023/06/06 05:01:24;;;;;;;1.00;1.00;;;13.70;61.50;13.20;96088.00;;;;5016617;28;20291;-56
2023/06/06 05:03:52;;;;;;;0.80;0.80;;;13.80;61.30;13.20;96092.00;;;;5017011;28;20214;-56
2023/06/06 05:06:20;;;;;;;1.10;1.10;;;13.80;61.60;13.30;96090.00;;;;5017244;28;20188;-57
2023/06/06 05:08:49;;;;;;;1.10;1.10;;;13.90;61.80;13.30;96102.00;;;;5016654;28;20272;-58
2023/06/06 05:11:19;;;;;;;1.00;1.00;;;13.90;62.30;13.30;96090.00;;;;5016693;28;20256;-55
2023/06/06 05:13:46;;;;;;;1.07;1.07;;;13.90;62.40;13.40;96098.00;;;;5016441;28;20228;-57
2023/06/06 05:16:13;;;;;;;1.00;1.00;;;14.00;62.50;13.60;96086.00;;;;5016449;28;20665;-56
2023/06/06 05:18:40;;;;;;;1.00;1.00;;;14.10;62.30;13.70;96098.00;;;;5016301;28;20268;-56
2023/06/06 05:21:09;;;;;;;1.13;1.13;;;14.30;61.80;13.90;96097.00;;;;5016135;28;20193;-57
2023/06/06 05:23:36;;;;;;;1.00;1.00;;;14.40;61.10;13.80;96096.00;;;;5015891;28;20244;-57
2023/06/06 05:26:03;;;;;;;1.20;1.20;;;14.40;61.10;14.00;96103.00;;;;5016268;28;20189;-55
2023/06/06 05:28:30;;;;;;;1.70;1.60;;;14.50;61.20;14.00;96098.00;;;;5016407;28;20200;-56
2023/06/06 05:30:58;;;;;;;1.37;1.27;;;14.50;61.00;14.00;96106.00;;;;5016248;28;20209;-56
2023/06/06 05:33:26;;;;;;;1.63;1.30;;;14.50;60.90;14.00;96111.00;;;;5015003;28;20220;-56
2023/06/06 05:35:55;;;;;;;1.40;1.30;;;14.50;61.00;14.10;96117.00;;;;5016192;28;20190;-56
2023/06/06 05:38:25;;;;;;;0.87;0.87;;;14.60;60.60;14.20;96108.00;;;;5016440;28;20193;-56
2023/06/06 05:40:52;;;;;;;0.90;0.90;;;14.70;60.60;14.20;96115.00;;;;5016239;28;20200;-56
2023/06/06 05:43:19;;;;;;;0.97;0.97;;;14.80;60.20;14.10;96118.00;;;;5016633;28;20206;-56
2023/06/06 05:45:46;;;;;;;1.03;1.03;;;14.70;61.00;14.10;96117.00;;;;5016001;28;20744;-56
2023/06/06 05:48:13;;;;;;;1.33;1.33;;;14.70;61.00;14.10;96115.00;;;;5015896;28;20189;-57
2023/06/06 05:50:41;;;;;;;1.10;1.10;;;14.90;61.40;14.30;96126.00;;;;5015949;28;20197;-56
2023/06/06 05:53:08;;;;;;;1.83;1.70;;;14.90;61.30;14.50;96113.00;;;;5015792;28;20217;-55
2023/06/06 05:55:37;;;;;;;1.80;1.70;;;15.00;61.50;14.40;96124.00;;;;5015750;28;20239;-55
2023/06/06 05:58:05;;;;;;;0.70;0.70;;;15.00;60.70;14.40;96114.00;;;;5015884;28;20197;-55
2023/06/06 06:00:34;;;;;;;1.10;1.10;;;15.00;61.50;14.60;96109.00;;;;5015690;28;20196;-55
2023/06/06 06:03:03;;;;;;;1.53;1.43;;;15.10;61.60;14.70;96115.00;;;;5015601;28;20249;-54
2023/06/06 06:05:31;;;;;;;1.53;1.47;;;15.20;60.80;14.90;96117.00;;;;5015857;28;20197;-56
2023/06/06 06:08:00;;;;;;;0.93;0.90;;;15.40;60.80;15.10;96121.00;;;;5015516;28;20669;-55
2023/06/06 06:10:28;;;;;;;1.53;1.10;;;15.50;60.30;15.20;96125.00;;;;5015425;28;20194;-55
2023/06/06 06:12:57;;;;;;;1.30;1.30;;;15.70;60.60;15.50;96125.00;;;;5014800;28;20288;-55
2023/06/06 06:15:24;;;;;;;1.17;1.17;;;15.90;59.80;15.60;96121.00;;;;5015446;28;20219;-56
2023/06/06 06:17:52;;;;;;;0.60;0.60;;;16.00;59.80;15.80;96127.00;;;;5014085;28;20200;-54
2023/06/06 06:20:20;;;;;;;2.53;1.33;;;16.20;58.90;15.60;96131.00;;;;5015407;28;20186;-55
2023/06/06 06:22:48;;;;;;;1.30;1.23;;;16.10;58.20;15.70;96134.00;;;;5015129;28;20232;-55
2023/06/06 06:25:16;;;;;;;2.13;1.93;;;16.10;59.50;15.90;96132.00;;;;5015231;28;20194;-54
2023/06/06 06:27:45;;;;;;;1.03;1.03;;;16.30;58.50;15.90;96122.00;;;;5015515;28;20220;-55
2023/06/06 06:30:15;;;;;;;1.20;1.20;;;16.30;57.70;15.70;96133.00;;;;5013924;28;20228;-55
2023/06/06 06:32:45;;;;;;;1.60;1.50;;;16.30;57.40;15.90;96128.00;;;;5015442;28;20214;-55
2023/06/06 06:35:12;;;;;;;1.03;0.97;;;16.40;57.40;16.10;96139.00;;;;5013903;28;20224;-55
2023/06/06 06:37:40;;;;;;;3.73;1.97;;;16.70;56.20;16.30;96139.00;;;;5015085;28;20193;-55
2023/06/06 06:40:10;;;;;;;1.53;1.53;;;16.70;56.90;16.40;96135.00;;;;5015040;28;20197;-55
2023/06/06 06:42:40;;;;;;;0.70;0.70;;;16.90;54.50;16.30;96132.00;;;;5014993;28;20213;-55
2023/06/06 06:45:11;;;;;;;0.60;0.60;;;16.80;55.30;16.70;96139.00;;;;5014931;28;20281;-55
2023/06/06 06:47:41;;;;;;;1.73;1.63;;;17.10;55.10;16.70;96133.00;;;;5013540;28;20245;-54
2023/06/06 06:50:10;;;;;;;0.83;0.83;;;17.20;52.80;16.90;96149.00;;;;5015143;28;20200;-55
2023/06/06 06:52:37;;;;;;;1.13;1.10;;;17.40;51.80;16.90;96139.00;;;;5014811;28;20720;-55
2023/06/06 06:55:07;;;;;;;0.80;0.80;;;17.40;52.30;17.00;96147.00;;;;5014612;28;20222;-55
2023/06/06 06:57:36;;;;;;;0.97;0.97;;;17.50;51.30;17.00;96145.00;;;;5014557;28;20276;-55
2023/06/06 07:00:11;;;;;;;0.83;0.83;;;17.50;51.10;17.10;96142.00;;;;5015041;28;20205;-55
2023/06/06 07:02:42;;;;;;;1.27;1.17;;;17.60;50.70;17.30;96150.00;;;;5015289;28;20239;-55
2023/06/06 07:05:10;;;;;;;0.80;0.80;;;17.70;51.00;17.60;96152.00;;;;5014790;28;20270;-55
2023/06/06 07:07:45;;;;;;;1.10;1.10;;;17.90;50.80;17.70;96158.00;;;;5014708;28;20212;-55
2023/06/06 07:10:15;;;;;;;0.80;0.80;;;18.20;50.40;17.80;96154.00;;;;5014929;28;20166;-55
2023/06/06 07:12:42;;;;;;;0.70;0.70;;;18.20;47.70;18.00;96154.00;;;;5014712;28;20213;-55
2023/06/06 07:15:10;;;;;;;0.77;0.77;;;18.40;47.80;18.00;96147.00;;;;5014498;28;20217;-55
2023/06/06 07:17:37;;;;;;;1.00;1.00;;;18.50;47.10;18.10;96154.00;;;;5014512;28;20204;-55
2023/06/06 07:20:08;;;;;;;0.73;0.73;;;18.60;46.80;18.30;96156.00;;;;5015091;28;20202;-57
2023/06/06 07:22:36;;;;;;;0.87;0.87;;;18.70;46.50;18.50;96155.00;;;;5014561;28;20680;-54
2023/06/06 07:25:05;;;;;;;1.00;1.00;;;18.90;46.40;18.60;96150.00;;;;5014630;28;20232;-58
2023/06/06 07:27:35;;;;;;;0.90;0.90;;;19.00;45.70;18.50;96158.00;;;;5014362;28;20190;-55
2023/06/06 07:30:04;;;;;;;0.90;0.90;;;19.00;45.60;18.80;96160.00;;;;5013089;28;20201;-55
2023/06/06 07:32:31;;;;;;;1.17;1.17;;;19.20;45.10;18.80;96158.00;;;;5014158;28;20214;-55
2023/06/06 07:34:59;;;;;;;0.80;0.80;;;19.30;44.70;18.90;96159.00;;;;5014914;28;20221;-55
2023/06/06 07:37:27;;;;;;;0.87;0.87;;;19.30;44.60;18.90;96160.00;;;;5014422;28;20190;-55
2023/06/06 07:39:54;;;;;;;1.17;1.17;;;19.40;42.90;19.00;96154.00;;;;5014085;28;20200;-55
2023/06/06 07:42:21;;;;;;;0.80;0.80;;;19.40;43.60;19.00;96141.00;;;;5014067;28;20193;-55
2023/06/06 07:44:51;;;;;;;1.20;1.10;;;19.50;41.90;19.10;96153.00;;;;5014721;28;20197;-55
2023/06/06 07:47:18;;;;;;;1.13;1.13;;;19.60;42.70;19.30;96153.00;;;;5014351;28;20562;-55
2023/06/06 07:49:45;;;;;;;0.60;0.60;;;19.60;41.80;19.50;96148.00;;;;5014270;28;20628;-55
2023/06/06 07:52:13;;;;;;;1.20;1.20;;;19.80;41.60;19.20;96144.00;;;;5013924;28;20648;-55
2023/06/06 07:54:43;;;;;;;0.87;0.87;;;19.70;41.90;19.50;96149.00;;;;5012611;28;20747;-55
2023/06/06 07:57:11;;;;;;;1.13;1.13;;;19.90;40.10;19.50;96150.00;;;;5012664;28;20664;-55
2023/06/06 07:59:38;;;;;;;0.90;0.90;;;19.90;39.80;19.70;96149.00;;;;5013850;28;20198;-55
2023/06/06 08:02:06;;;;;;;1.07;1.03;;;20.10;40.00;19.60;96147.00;;;;5013976;28;20193;-55
2023/06/06 08:04:33;;;;;;;2.43;1.50;;;20.00;39.10;20.00;96140.00;;;;5013637;28;20669;-59
2023/06/06 08:07:03;;;;;;;4.70;1.13;;;20.20;39.10;19.40;96139.00;;;;5013710;28;20197;-55
2023/06/06 08:09:31;;;;;;;1.03;1.03;;;20.00;37.70;19.60;96138.00;;;;5014253;28;20186;-55
2023/06/06 08:12:00;;;;;;;0.80;0.80;;;20.00;37.50;19.80;96143.00;;;;5013668;28;20723;-55
2023/06/06 08:14:29;;;;;;;0.60;0.60;;;20.20;37.50;20.00;96156.00;;;;5013732;28;20582;-55
2023/06/06 08:16:56;;;;;;;0.87;0.87;;;20.30;38.10;19.80;96149.00;;;;5013903;28;20613;-55
2023/06/06 08:19:23;;;;;;;1.00;1.00;;;20.20;36.80;20.10;96143.00;;;;5013799;28;20552;-55
2023/06/06 08:21:50;;;;;;;0.70;0.70;;;20.40;36.70;20.10;96137.00;;;;5013591;28;20543;-55
2023/06/06 08:24:17;;;;;;;0.67;0.67;;;20.50;35.60;20.20;96148.00;;;;5013379;28;20225;-55
2023/06/06 08:26:44;;;;;;;0.60;0.60;;;20.60;35.50;20.10;96134.00;;;;5013737;28;20190;-55
2023/06/06 08:29:14;;;;;;;0.83;0.83;;;20.60;35.10;20.20;96142.00;;;;5013463;28;20217;-55
2023/06/06 08:31:43;;;;;;;1.53;1.27;;;20.70;38.00;19.80;96141.00;;;;5013358;28;20267;-55
2023/06/06 08:34:10;;;;;;;1.63;1.53;;;20.30;35.70;20.20;96155.00;;;;5014213;28;20216;-55
2023/06/06 08:36:38;;;;;;;0.98;0.98;;;20.50;35.70;20.30;96148.00;;;;5018515;28;20232;-55
2023/06/06 08:39:06;;;;;;;1.13;1.13;;;20.70;35.00;20.40;96130.00;;;;5019922;28;20189;-55
2023/06/06 08:41:34;;;;;;;0.97;0.97;;;20.80;34.50;20.60;96146.00;;;;5019879;28;20197;-56
2023/06/06 08:44:03;;;;;;;1.20;1.20;;;21.00;33.80;20.90;96141.00;;;;5020051;28;20213;-55
2023/06/06 08:46:34;;;;;;;0.80;0.80;;;21.20;33.20;21.00;96154.00;;;;5019918;28;20189;-56
2023/06/06 08:49:05;;;;;;;1.10;1.10;;;21.30;33.50;21.00;96153.00;;;;5020355;28;20177;-55
2023/06/06 08:51:32;;;;;;;1.37;1.27;;;21.40;33.00;20.80;96143.00;;;;5020140;28;20204;-55
2023/06/06 08:54:00;;;;;;;1.45;1.40;;;21.20;31.30;20.70;96152.00;;;;5019787;28;20209;-55
2023/06/06 08:56:28;;;;;;;1.02;1.02;;;21.20;32.20;21.10;96149.00;;;;5019965;28;20225;-55
2023/06/06 08:58:55;;;;;;;1.27;1.17;;;21.40;32.30;21.00;96143.00;;;;5019690;28;20185;-55
2023/06/06 09:01:23;;;;;;;0.57;0.57;;;21.50;31.50;20.80;96155.00;;;;5019773;28;20192;-55
2023/06/06 09:03:53;;;;;;;1.00;0.93;;;21.30;31.50;20.60;96141.00;;;;5019734;28;20235;-55
2023/06/06 09:06:21;;;;;;;1.02;0.95;;;21.10;31.60;20.70;96149.00;;;;5019995;28;20239;-55
2023/06/06 09:08:50;;;;;;;0.93;0.93;;;21.20;31.20;20.90;96153.00;;;;5019693;28;20190;-55
2023/06/06 09:11:17;;;;;;;0.73;0.73;;;21.30;32.70;21.10;96152.00;;;;5019743;28;20197;-56
2023/06/06 09:13:46;;;;;;;1.05;0.90;;;21.40;31.90;21.10;96152.00;;;;5019850;28;20291;-55
2023/06/06 09:16:14;;;;;;;1.42;1.30;;;21.50;32.80;21.50;96149.00;;;;5018216;28;20712;-53
2023/06/06 09:18:42;;;;;;;0.68;0.68;;;21.80;32.00;21.50;96145.00;;;;5019597;28;20185;-53
2023/06/06 09:21:13;;;;;;;0.95;0.95;;;21.90;30.80;21.60;96141.00;;;;5018329;28;20193;-53
2023/06/06 09:23:41;;;;;;;1.63;1.52;;;22.00;30.40;21.70;96149.00;;;;5019593;28;20221;-53
2023/06/06 09:26:20;;;;;;;1.25;1.15;;;22.10;30.00;21.80;96146.00;;;;5019524;28;20236;-53
2023/06/06 09:28:48;;;;;;;0.73;0.73;;;22.20;29.60;22.10;96154.00;;;;5019542;28;20174;-53
2023/06/06 09:31:25;;;;;;;0.75;0.75;;;22.40;30.40;22.20;96146.00;;;;5019783;28;20192;-53
2023/06/06 09:33:54;;;;;;;0.70;0.70;;;22.50;29.40;22.20;96160.00;;;;5018163;28;20209;-53
2023/06/06 09:36:24;;;;;;;0.98;0.98;;;22.60;32.90;22.30;96147.00;;;;5019880;28;20217;-58
2023/06/06 09:38:53;;;;;;;2.50;1.50;;;22.60;29.00;22.30;96144.00;;;;5019381;28;20236;-56
2023/06/06 09:41:21;;;;;;;0.93;0.93;;;;;22.50;96152.00;;;;5019387;28;20212;-56
2023/06/06 09:43:49;;;;;;;2.58;1.48;;;22.80;28.40;22.30;96151.00;;;;5019342;28;20213;-56
2023/06/06 09:46:17;;;;;;;1.27;1.23;;;22.70;28.60;22.30;96141.00;;;;5018105;28;20200;-53
2023/06/06 09:48:57;;;;;;;1.10;1.10;;;22.80;28.10;22.20;96156.00;;;;5016297;28;20193;-57
2023/06/06 09:51:26;;;;;;;1.25;1.17;;;22.60;27.90;22.20;96148.00;;;;5016754;28;20181;-56
2023/06/06 09:53:54;;;;;;;0.60;0.60;;;22.70;27.60;22.50;96148.00;;;;5016151;28;20233;-55
2023/06/06 09:56:23;;;;;;;0.65;0.65;;;22.80;27.00;22.80;96147.00;;;;5016071;28;20225;-53
2023/06/06 09:58:55;;;;;;;2.53;1.30;;;23.00;28.10;22.90;96153.00;;;;5014828;28;20221;-55
2023/06/06 10:01:27;;;;;;;1.77;1.67;;;23.20;27.50;23.00;96144.00;;;;5016397;28;20178;-52
2023/06/06 10:03:57;;;;;;;0.50;0.50;;;23.40;28.50;22.50;96148.00;;;;5015921;28;20213;-53
2023/06/06 10:06:33;;;;;;;1.38;1.27;;;23.00;27.70;22.80;96142.00;;;;5015933;28;20208;-53
2023/06/06 10:09:02;;;;;;;1.20;1.15;;;23.10;28.00;23.00;96131.00;;;;5015988;28;20213;-53
2023/06/06 10:11:30;;;;;;;0.73;0.73;;;23.30;26.80;23.10;96143.00;;;;5016153;28;20186;-53
2023/06/06 10:13:58;;;;;;;1.48;1.38;;;23.40;27.20;23.00;96134.00;;;;5015758;28;20226;-53
2023/06/06 10:16:27;;;;;;;1.10;1.10;;;23.40;28.10;23.30;96132.00;;;;5015724;28;20228;-54
2023/06/06 10:18:56;;;;;;;0.75;0.75;;;23.60;28.00;23.30;96136.00;;;;5015716;28;20600;-54
2023/06/06 10:21:27;;;;;;;1.52;1.45;;;23.70;27.70;23.60;96133.00;;;;5015598;28;20193;-54
2023/06/06 10:23:54;;;;;;;1.88;1.42;;;23.70;27.30;23.80;96135.00;;;;5015406;28;20220;-54
2023/06/06 10:26:28;;;;;;;2.05;1.05;;;24.00;26.40;23.90;96126.00;;;;5015540;28;20193;-54
2023/06/06 10:29:05;;;;;;;1.38;1.27;;;24.20;25.90;23.80;96126.00;;;;5016062;28;20189;-54
2023/06/06 10:31:46;;;;;;;0.90;0.90;;;24.20;25.10;23.80;96123.00;;;;5015571;28;20204;-54
2023/06/06 10:34:22;;;;;;;1.40;1.30;;;24.20;26.50;23.90;96119.00;;;;5015490;28;20224;-54
2023/06/06 10:36:52;;;;;;;1.50;1.40;;;;;24.10;96123.00;;;;5015354;28;20209;-54
2023/06/06 10:39:20;;;;;;;1.30;1.20;;;;;24.00;96119.00;;;;5015198;28;20228;-54
2023/06/06 10:41:53;;;;;;;2.65;1.30;;;;;24.00;96123.00;;;;5015212;28;20194;-54
2023/06/06 10:44:27;;;;;;;0.90;0.90;;;;;24.30;96120.00;;;;5015024;28;20221;-54
2023/06/06 10:47:27;;;;;;;1.42;1.10;;;;;24.40;96125.00;;;;5013965;28;20672;-55
2023/06/06 10:50:23;;;;;;;1.17;1.00;;;;;24.30;96119.00;;;;5015044;28;20182;-55
2023/06/06 10:52:54;;;;;;;1.23;1.13;;;;;24.40;96120.00;;;;5015012;28;20217;-54
2023/06/06 10:55:44;;;;;;;0.95;0.95;;;;;24.70;96118.00;;;;5014929;28;20209;-57
2023/06/06 10:58:18;;;;;;;0.70;0.70;;;;;24.80;96118.00;;;;5014422;28;20649;-57
2023/06/06 11:00:46;;;;;;;0.93;0.93;;;;;24.90;96114.00;;;;5014930;28;20189;-55
2023/06/06 11:03:16;;;;;;;1.55;1.27;;;;;24.90;96109.00;;;;5014740;28;20219;-55
2023/06/06 11:06:07;;;;;;;1.08;1.08;;;;;25.30;96111.00;;;;5014880;28;20190;-55
2023/06/06 11:08:37;;;;;;;1.05;1.00;;;;;25.10;96109.00;;;;5014769;28;20190;-55